Time;durP1;ratioP1;P1;durP2;ratioP2;P2;SDS_P1;SDS_P2;PMS_P1;PMS_P2;Temp;Humidity;BMP_temperature;BMP_pressure;BME280_temperature;BME280_humidity;BME280_pressure;Samples;Min_cycle;Max_cycle;Signal;HPM_P1;HPM_P2
2021/12/20 00:00:24;;;;;;;15.07;8.57;;;-1.70;99.90;;;;;;5037498;28;20579;-80
2021/12/20 00:02:56;;;;;;;13.37;8.83;;;-1.60;99.90;;;;;;5037581;28;20208;-73
2021/12/20 00:05:23;;;;;;;19.30;8.60;;;-1.90;99.90;;;;;;5038697;28;20171;-80
2021/12/20 00:07:49;;;;;;;17.67;8.17;;;-1.90;99.90;;;;;;5038321;28;20223;-80
2021/12/20 00:10:15;;;;;;;14.97;8.37;;;-2.60;99.90;;;;;;5038389;28;20530;-81
2021/12/20 00:12:42;;;;;;;10.77;8.97;;;-2.60;99.90;;;;;;5037466;28;20219;-73
2021/12/20 00:15:08;;;;;;;18.73;8.90;;;-2.20;99.90;;;;;;5037778;28;20235;-76
2021/12/20 00:17:34;;;;;;;15.27;8.27;;;-2.30;99.90;;;;;;5038362;28;20176;-73
2021/12/20 00:20:00;;;;;;;13.37;8.87;;;-2.50;99.90;;;;;;5038208;28;20561;-73
2021/12/20 00:22:26;;;;;;;14.87;8.87;;;-1.70;99.90;;;;;;5036662;28;20251;-73
2021/12/20 00:24:51;;;;;;;18.77;9.27;;;-3.00;99.90;;;;;;5038199;28;20482;-75
2021/12/20 00:27:20;;;;;;;16.43;11.07;;;-2.80;99.90;;;;;;5038247;28;20251;-73
2021/12/20 00:29:47;;;;;;;11.77;7.70;;;-1.90;99.90;;;;;;5037950;28;20170;-74
2021/12/20 00:32:13;;;;;;;22.17;10.70;;;-2.10;99.90;;;;;;5038028;28;20654;-74
2021/12/20 00:34:41;;;;;;;17.07;10.00;;;-2.20;99.90;;;;;;5037765;28;20664;-76
2021/12/20 00:40:20;;;;;;;15.93;9.40;;;-1.90;99.90;;;;;;5036745;28;20176;-75
2021/12/20 00:42:39;;;;;;;15.33;7.80;;;-2.10;99.90;;;;;;5037917;28;20242;-73
2021/12/20 00:45:05;;;;;;;19.47;10.17;;;-2.10;99.90;;;;;;5036776;28;20198;-74
2021/12/20 00:47:31;;;;;;;14.30;9.80;;;-2.50;99.90;;;;;;5037815;28;20180;-73
2021/12/20 00:49:57;;;;;;;16.67;9.23;;;-2.30;99.90;;;;;;5037461;28;20163;-74
2021/12/20 00:52:22;;;;;;;11.30;8.90;;;-2.10;99.90;;;;;;5037300;28;20199;-73
2021/12/20 00:54:48;;;;;;;17.97;9.30;;;-2.20;99.90;;;;;;5037603;28;20192;-74
2021/12/20 00:57:14;;;;;;;16.73;8.07;;;-2.20;99.90;;;;;;5037732;28;20622;-75
2021/12/20 00:59:40;;;;;;;17.20;8.53;;;-2.10;99.90;;;;;;5037479;28;20176;-74
2021/12/20 01:02:05;;;;;;;12.40;8.40;;;-2.10;99.90;;;;;;5036402;28;20562;-73
2021/12/20 01:04:31;;;;;;;14.47;8.30;;;-2.40;99.90;;;;;;5037163;28;20249;-74
2021/12/20 01:06:57;;;;;;;16.07;8.47;;;-2.60;99.90;;;;;;5037423;28;20463;-74
2021/12/20 01:09:23;;;;;;;12.73;7.77;;;-1.90;99.90;;;;;;5037273;28;20166;-74
2021/12/20 01:11:52;;;;;;;8.20;6.93;;;-2.30;99.90;;;;;;5037278;28;20522;-73
2021/12/20 01:14:24;;;;;;;14.17;7.50;;;-2.40;99.90;;;;;;5036264;28;20204;-74
2021/12/20 01:16:50;;;;;;;15.30;8.80;;;-2.10;99.90;;;;;;5037100;28;20174;-74
2021/12/20 01:19:16;;;;;;;7.87;7.07;;;-2.10;99.90;;;;;;5037060;28;20184;-77
2021/12/20 01:21:42;;;;;;;13.07;6.77;;;-2.40;99.90;;;;;;5036965;28;20184;-75
2021/12/20 01:24:08;;;;;;;9.87;7.17;;;-2.10;99.90;;;;;;5037516;28;20201;-74
2021/12/20 01:26:34;;;;;;;17.27;8.13;;;-2.10;99.90;;;;;;5036028;28;20185;-74
2021/12/20 01:29:00;;;;;;;16.60;7.00;;;-1.90;99.90;;;;;;5037184;28;20204;-83
2021/12/20 01:31:26;;;;;;;10.37;6.63;;;-2.10;99.90;;;;;;5037037;28;20528;-82
2021/12/20 01:33:52;;;;;;;14.37;7.07;;;-2.00;99.90;;;;;;5035821;28;20244;-80
2021/12/20 01:36:17;;;;;;;9.80;6.10;;;-2.00;99.90;;;;;;5037082;28;20522;-82
2021/12/20 01:38:43;;;;;;;9.77;6.23;;;-1.90;99.90;;;;;;5037082;28;20585;-83
2021/12/20 01:41:10;;;;;;;12.10;6.07;;;-2.00;99.90;;;;;;5037265;28;20588;-82
2021/12/20 01:43:37;;;;;;;19.63;7.63;;;-1.90;99.90;;;;;;5037998;28;20554;-83
2021/12/20 01:46:03;;;;;;;13.47;7.70;;;-1.90;99.90;;;;;;5036892;28;20591;-82
2021/12/20 01:48:30;;;;;;;9.43;6.40;;;-2.10;99.90;;;;;;5037265;28;20249;-73
2021/12/20 01:53:36;;;;;;;9.97;5.80;;;-1.60;99.90;;;;;;5036737;28;20180;-73
2021/12/20 01:56:03;;;;;;;9.47;6.60;;;-1.90;99.90;;;;;;5036400;28;20173;-74
2021/12/20 01:58:30;;;;;;;16.60;6.70;;;-1.90;99.90;;;;;;5035369;28;20188;-74
2021/12/20 02:03:41;;;;;;;8.17;4.87;;;-1.10;99.90;;;;;;5036012;28;20499;-74
2021/12/20 02:09:11;;;;;;;7.37;4.93;;;-2.00;99.90;;;;;;5039949;28;20280;-74
2021/12/20 02:11:38;;;;;;;8.43;5.13;;;-1.90;99.90;;;;;;5035939;28;20173;-74
2021/12/20 02:14:06;;;;;;;7.57;5.30;;;-2.10;99.90;;;;;;5036130;28;20251;-74
2021/12/20 02:16:33;;;;;;;10.63;5.03;;;-2.10;99.90;;;;;;5034991;28;20173;-74
2021/12/20 02:19:04;;;;;;;8.77;4.97;;;-1.80;99.90;;;;;;5035963;28;20200;-82
2021/12/20 02:21:31;;;;;;;14.20;4.67;;;-1.90;99.90;;;;;;5034948;28;20172;-84
2021/12/20 02:23:56;;;;;;;6.17;5.23;;;-1.90;99.90;;;;;;5036273;28;20205;-84
2021/12/20 02:26:23;;;;;;;4.80;3.77;;;-2.00;99.90;;;;;;5035356;28;20191;-82
2021/12/20 02:28:52;;;;;;;7.33;4.47;;;-1.90;99.90;;;;;;5038375;28;20161;-81
2021/12/20 02:37:02;;;;;;;11.00;4.90;;;-1.90;99.90;;;;;;5035617;28;20615;-83
2021/12/20 02:39:29;;;;;;;8.60;5.00;;;-1.90;99.90;;;;;;5036255;28;20176;-77
2021/12/20 02:41:55;;;;;;;10.60;5.03;;;-2.00;99.90;;;;;;5035932;28;20166;-75
2021/12/20 02:44:23;;;;;;;9.70;5.43;;;-1.50;99.90;;;;;;5036035;28;20256;-85
2021/12/20 02:47:03;;;;;;;10.33;6.10;;;-1.70;99.90;;;;;;5034939;28;20169;-75
2021/12/20 02:49:29;;;;;;;7.83;5.83;;;-1.80;99.90;;;;;;5036659;28;20173;-79
2021/12/20 02:52:05;;;;;;;14.50;7.80;;;-2.00;99.90;;;;;;5044978;28;20184;-84
2021/12/20 02:54:31;;;;;;;7.67;6.87;;;-1.70;99.90;;;;;;5044764;28;20310;-76
2021/12/20 02:56:57;;;;;;;12.37;6.47;;;-2.10;99.90;;;;;;5037687;28;20536;-85
2021/12/20 02:59:23;;;;;;;11.13;7.30;;;-2.20;99.90;;;;;;5035806;28;20165;-84
2021/12/20 03:01:54;;;;;;;11.83;6.77;;;-2.10;99.90;;;;;;5035370;28;20263;-84
2021/12/20 03:04:20;;;;;;;10.93;6.77;;;-2.10;99.90;;;;;;5034662;28;20198;-82
2021/12/20 03:07:01;;;;;;;9.83;6.70;;;-2.00;99.90;;;;;;5035785;28;20161;-83
2021/12/20 03:09:32;;;;;;;11.60;6.30;;;-1.80;99.90;;;;;;5034668;28;20172;-80
2021/12/20 03:12:00;;;;;;;11.63;6.67;;;-1.90;99.90;;;;;;5035587;28;20165;-81
2021/12/20 03:14:35;;;;;;;13.93;7.10;;;-2.10;99.90;;;;;;5035460;28;20208;-80
2021/12/20 03:17:02;;;;;;;7.27;5.27;;;-2.40;99.90;;;;;;5035514;28;20254;-80
2021/12/20 03:19:29;;;;;;;6.17;5.23;;;-2.30;99.90;;;;;;5035486;28;20218;-77
2021/12/20 03:21:55;;;;;;;6.03;4.50;;;-2.20;99.90;;;;;;5035553;28;20231;-81
2021/12/20 03:24:21;;;;;;;7.20;4.60;;;-2.40;99.90;;;;;;5034071;28;20208;-78
2021/12/20 03:26:47;;;;;;;9.97;5.90;;;-2.20;99.90;;;;;;5035634;28;20165;-80
2021/12/20 03:29:13;;;;;;;7.37;5.40;;;-2.10;99.90;;;;;;5035491;28;20473;-83
2021/12/20 03:31:40;;;;;;;10.53;4.57;;;-2.40;99.90;;;;;;5035347;28;20258;-78
2021/12/20 03:34:06;;;;;;;6.30;3.83;;;-2.30;99.90;;;;;;5035236;28;20226;-82
2021/12/20 03:36:33;;;;;;;5.47;3.53;;;-2.30;99.90;;;;;;5034311;28;20568;-82
2021/12/20 03:38:59;;;;;;;9.57;3.93;;;-2.00;99.90;;;;;;5034248;28;20596;-78
2021/12/20 03:41:25;;;;;;;4.93;3.50;;;-2.10;99.90;;;;;;5035247;28;20247;-80
2021/12/20 03:43:52;;;;;;;4.27;3.20;;;-2.10;99.90;;;;;;5034905;28;20197;-77
2021/12/20 03:46:18;;;;;;;3.47;1.53;;;-2.20;99.90;;;;;;5035289;28;20168;-79
2021/12/20 03:48:44;;;;;;;1.80;1.67;;;-2.20;99.90;;;;;;5036303;28;20169;-81
2021/12/20 03:51:10;;;;;;;1.27;1.20;;;-2.10;99.90;;;;;;5038741;28;20314;-77
2021/12/20 03:53:36;;;;;;;1.97;1.33;;;-1.80;99.90;;;;;;5038987;28;20204;-79
2021/12/20 03:56:06;;;;;;;5.40;1.80;;;-1.90;99.90;;;;;;5038907;28;20180;-80
2021/12/20 03:58:33;;;;;;;3.23;2.00;;;-2.00;99.90;;;;;;5037386;28;20176;-80
2021/12/20 04:01:02;;;;;;;0.83;0.83;;;-1.90;99.90;;;;;;5038753;28;20207;-78
2021/12/20 04:03:31;;;;;;;1.43;1.07;;;-2.40;99.90;;;;;;5038437;28;20250;-80
2021/12/20 04:05:57;;;;;;;2.00;1.17;;;-2.50;99.90;;;;;;5038653;28;20161;-77
2021/12/20 04:08:23;;;;;;;1.27;1.17;;;-2.40;99.90;;;;;;5037267;28;20173;-79
2021/12/20 04:10:49;;;;;;;2.33;1.00;;;-2.50;99.90;;;;;;5037754;28;20255;-79
2021/12/20 04:13:15;;;;;;;1.47;1.37;;;-2.70;99.90;;;;;;5038188;28;20205;-80
2021/12/20 04:15:41;;;;;;;4.10;1.97;;;-2.30;99.90;;;;;;5038390;28;20204;-77
2021/12/20 04:18:08;;;;;;;1.23;0.97;;;-2.60;99.90;;;;;;5038292;28;20222;-77
2021/12/20 04:20:35;;;;;;;1.83;1.27;;;-2.10;99.90;;;;;;5038216;28;20536;-80
2021/12/20 04:23:00;;;;;;;2.73;1.13;;;-1.80;99.90;;;;;;5038243;28;20251;-80
2021/12/20 04:25:26;;;;;;;2.40;1.80;;;-2.50;99.90;;;;;;5038125;28;20592;-77
2021/12/20 04:27:52;;;;;;;1.97;1.33;;;-2.50;99.90;;;;;;5038049;28;20172;-77
2021/12/20 04:30:18;;;;;;;1.57;1.30;;;-0.30;99.90;;;;;;5037956;28;20191;-74
2021/12/20 04:32:46;;;;;;;2.53;1.20;;;-2.40;99.90;;;;;;5038246;28;20165;-80
2021/12/20 04:35:14;;;;;;;2.10;1.10;;;-2.10;99.90;;;;;;5037041;28;20283;-78
2021/12/20 04:37:42;;;;;;;8.70;2.17;;;-2.40;99.90;;;;;;5037075;28;20169;-78
2021/12/20 04:40:10;;;;;;;5.83;2.07;;;-1.90;99.90;;;;;;5038116;28;20215;-75
2021/12/20 04:42:35;;;;;;;3.50;1.53;;;-2.40;99.90;;;;;;5037638;28;20207;-80
2021/12/20 04:45:02;;;;;;;6.83;1.60;;;-2.30;99.90;;;;;;5036828;28;20176;-79
2021/12/20 04:47:27;;;;;;;3.00;1.60;;;-2.40;99.90;;;;;;5037888;28;20165;-79
2021/12/20 04:49:54;;;;;;;2.93;1.80;;;-2.40;99.90;;;;;;5037836;28;20168;-74
2021/12/20 04:52:20;;;;;;;5.37;2.07;;;-1.40;99.90;;;;;;5037630;28;20184;-75
2021/12/20 04:54:45;;;;;;;2.87;2.00;;;-2.60;99.90;;;;;;5036768;28;20190;-74
2021/12/20 04:57:11;;;;;;;3.73;1.90;;;-2.50;99.90;;;;;;5036307;28;20173;-78
2021/12/20 04:59:37;;;;;;;4.17;2.33;;;-2.70;99.90;;;;;;5036418;28;20228;-76
2021/12/20 05:02:03;;;;;;;4.73;1.73;;;-2.60;99.90;;;;;;5037513;28;20203;-75
2021/12/20 05:04:29;;;;;;;7.83;2.10;;;-2.60;99.90;;;;;;5037445;28;20248;-81
2021/12/20 05:06:54;;;;;;;4.60;2.80;;;-2.90;99.90;;;;;;5037482;28;20180;-84
2021/12/20 05:09:20;;;;;;;7.07;3.10;;;-2.60;99.90;;;;;;5037421;28;20177;-83
2021/12/20 05:12:00;;;;;;;6.93;3.40;;;-2.90;99.90;;;;;;5037118;28;20499;-76
2021/12/20 05:14:26;;;;;;;8.83;3.30;;;-2.50;99.90;;;;;;5037270;28;20196;-75
2021/12/20 05:16:52;;;;;;;8.50;2.80;;;-2.50;99.90;;;;;;5036054;28;20200;-74
2021/12/20 05:19:18;;;;;;;5.50;2.23;;;-2.30;99.90;;;;;;5037114;28;20244;-76
2021/12/20 05:21:44;;;;;;;6.17;2.33;;;-2.70;99.90;;;;;;5036978;28;20172;-76
2021/12/20 05:24:10;;;;;;;7.60;3.13;;;-1.90;99.90;;;;;;5037247;28;20196;-78
2021/12/20 05:26:35;;;;;;;2.93;2.10;;;-2.80;99.90;;;;;;5036721;28;20180;-81
2021/12/20 05:29:06;;;;;;;7.57;2.97;;;-2.70;99.90;;;;;;5036324;28;20169;-82
2021/12/20 05:31:34;;;;;;;9.13;2.67;;;-2.70;99.90;;;;;;5035829;28;20176;-77
2021/12/20 05:34:00;;;;;;;9.50;3.63;;;-2.80;99.90;;;;;;5036865;28;20173;-80
2021/12/20 05:36:25;;;;;;;4.70;2.73;;;-2.70;99.90;;;;;;5036699;28;20188;-83
2021/12/20 05:38:51;;;;;;;3.50;2.13;;;-2.60;99.90;;;;;;5036920;28;20167;-78
2021/12/20 05:41:17;;;;;;;7.60;2.77;;;-2.80;99.90;;;;;;5036407;28;20173;-83
2021/12/20 05:43:43;;;;;;;9.27;3.93;;;-1.90;99.90;;;;;;5036674;28;20279;-83
2021/12/20 05:46:09;;;;;;;8.47;2.83;;;-2.70;99.90;;;;;;5036648;28;20583;-76
2021/12/20 05:48:34;;;;;;;3.73;2.03;;;-2.60;99.90;;;;;;5035681;28;20169;-80
2021/12/20 05:51:00;;;;;;;6.77;2.97;;;-2.70;99.90;;;;;;5036447;28;20181;-78
2021/12/20 05:53:26;;;;;;;8.73;2.33;;;-3.00;99.90;;;;;;5036570;28;20247;-84
2021/12/20 05:55:52;;;;;;;10.33;2.60;;;-3.00;99.90;;;;;;5036331;28;20455;-78
2021/12/20 05:58:17;;;;;;;4.93;2.57;;;-3.20;99.90;;;;;;5035421;28;20173;-85
2021/12/20 06:00:43;;;;;;;7.30;4.03;;;-3.20;99.90;;;;;;5035246;28;20538;-84
2021/12/20 06:03:10;;;;;;;11.30;3.03;;;-3.20;99.90;;;;;;5036415;28;20270;-81
2021/12/20 06:05:41;;;;;;;7.30;1.97;;;-2.80;99.90;;;;;;5036452;28;20471;-81
2021/12/20 06:08:07;;;;;;;10.43;2.50;;;-2.70;99.90;;;;;;5035493;28;20568;-81
2021/12/20 06:10:33;;;;;;;10.00;2.50;;;-2.50;99.90;;;;;;5035874;28;20196;-80
2021/12/20 06:12:59;;;;;;;5.77;3.33;;;-2.90;99.90;;;;;;5035800;28;20215;-84
2021/12/20 06:15:24;;;;;;;6.33;2.10;;;-2.90;99.90;;;;;;5018724;28;20173;-75
2021/12/20 06:17:50;;;;;;;11.93;2.30;;;-3.00;99.90;;;;;;5035406;28;20176;-83
2021/12/20 06:20:16;;;;;;;5.30;2.73;;;-2.40;99.90;;;;;;5036203;28;20191;-84
2021/12/20 06:22:42;;;;;;;6.20;3.30;;;-0.60;99.90;;;;;;5036007;28;20604;-81
2021/12/20 06:25:09;;;;;;;10.07;2.37;;;-2.50;99.90;;;;;;5035944;28;20169;-77
2021/12/20 06:27:34;;;;;;;8.57;2.60;;;-2.70;99.90;;;;;;5036289;28;20176;-82
2021/12/20 06:30:04;;;;;;;9.97;4.53;;;-2.60;99.90;;;;;;5036716;28;20232;-83
2021/12/20 06:32:32;;;;;;;15.10;2.53;;;-2.80;99.90;;;;;;5036925;28;20168;-86
2021/12/20 06:34:57;;;;;;;12.73;3.17;;;-1.40;99.90;;;;;;5035248;28;20512;-86
2021/12/20 06:37:24;;;;;;;5.07;2.90;;;-2.60;99.90;;;;;;5036324;28;20169;-80
2021/12/20 06:39:50;;;;;;;8.63;3.17;;;-1.90;99.90;;;;;;5035861;28;20510;-79
2021/12/20 06:42:16;;;;;;;5.60;2.97;;;-3.00;99.90;;;;;;5036010;28;20227;-84
2021/12/20 06:44:42;;;;;;;6.33;3.00;;;-1.90;99.90;;;;;;5042477;28;20187;-78
2021/12/20 06:47:08;;;;;;;6.07;2.70;;;-2.90;99.90;;;;;;5050228;28;20160;-77
2021/12/20 06:49:33;;;;;;;8.27;2.73;;;-3.20;99.90;;;;;;5046918;28;20200;-78
2021/12/20 06:52:00;;;;;;;7.10;2.50;;;-1.50;99.90;;;;;;5037802;28;20555;-78
2021/12/20 06:54:26;;;;;;;6.37;2.43;;;-2.20;99.90;;;;;;5035708;28;20478;-81
2021/12/20 06:56:52;;;;;;;12.23;3.37;;;-2.50;99.90;;;;;;5035906;28;20172;-77
2021/12/20 06:59:18;;;;;;;11.73;2.90;;;-2.70;99.90;;;;;;5034995;28;20173;-79
2021/12/20 07:01:44;;;;;;;18.77;4.10;;;-2.70;99.90;;;;;;5035673;28;20169;-84
2021/12/20 07:04:12;;;;;;;15.27;4.77;;;-2.80;99.90;;;;;;5035737;28;20204;-81
2021/12/20 07:06:38;;;;;;;16.97;2.97;;;-2.90;99.90;;;;;;5035588;28;20566;-81
2021/12/20 07:09:04;;;;;;;14.03;4.17;;;-2.80;99.90;;;;;;5035415;28;20180;-81
2021/12/20 07:11:30;;;;;;;5.57;3.30;;;-3.00;99.90;;;;;;5034733;28;20176;-82
2021/12/20 07:13:56;;;;;;;18.20;3.57;;;-3.30;99.90;;;;;;5035614;28;20176;-73
2021/12/20 07:16:22;;;;;;;15.27;2.83;;;-3.30;99.90;;;;;;5035843;28;20222;-75
2021/12/20 07:18:48;;;;;;;7.87;2.30;;;-3.00;99.90;;;;;;5035419;28;20200;-78
2021/12/20 07:21:14;;;;;;;12.53;3.97;;;-3.00;99.90;;;;;;5035477;28;20169;-74
2021/12/20 07:23:40;;;;;;;15.77;3.03;;;-3.00;99.90;;;;;;5036213;28;20210;-73
2021/12/20 07:26:09;;;;;;;11.77;2.53;;;-3.60;99.90;;;;;;5040081;28;20187;-82
2021/12/20 07:28:35;;;;;;;5.83;3.03;;;-3.50;99.90;;;;;;5034567;28;20176;-82
2021/12/20 07:31:01;;;;;;;10.07;3.07;;;-3.10;99.90;;;;;;5034326;28;20177;-74
2021/12/20 07:33:27;;;;;;;8.23;3.27;;;-2.60;99.90;;;;;;5034713;28;20500;-81
2021/12/20 07:35:53;;;;;;;12.43;4.57;;;-2.60;99.90;;;;;;5037938;28;20239;-75
2021/12/20 07:38:19;;;;;;;12.47;4.37;;;-2.40;99.90;;;;;;5031213;28;20177;-77
2021/12/20 07:40:48;;;;;;;13.53;3.07;;;-2.30;99.90;;;;;;5037081;28;20264;-74
2021/12/20 07:43:17;;;;;;;8.10;3.23;;;-2.80;99.90;;;;;;5038323;28;20224;-79
2021/12/20 07:45:44;;;;;;;9.30;3.77;;;-2.60;99.90;;;;;;5037932;28;20200;-83
2021/12/20 07:48:10;;;;;;;15.17;3.73;;;-2.40;99.90;;;;;;5037306;28;20196;-78
2021/12/20 07:50:36;;;;;;;13.43;3.90;;;-2.40;99.90;;;;;;5036852;28;20196;-73
2021/12/20 07:53:02;;;;;;;10.60;3.33;;;-2.50;99.90;;;;;;5038427;28;20469;-79
2021/12/20 07:55:28;;;;;;;14.33;4.57;;;-2.40;99.90;;;;;;5037915;28;20177;-77
2021/12/20 07:57:54;;;;;;;7.90;3.37;;;-1.10;99.90;;;;;;5038577;28;20214;-84
2021/12/20 08:00:20;;;;;;;9.20;3.20;;;-2.50;99.90;;;;;;5038011;28;20319;-78
2021/12/20 08:02:47;;;;;;;14.30;3.53;;;-2.60;99.90;;;;;;5036761;28;20281;-88
2021/12/20 08:05:15;;;;;;;18.40;4.47;;;-4.30;99.90;;;;;;5038182;28;20164;-76
2021/12/20 08:07:41;;;;;;;14.63;3.67;;;-2.20;99.90;;;;;;5038234;28;20172;-78
2021/12/20 08:10:08;;;;;;;11.23;3.00;;;-1.40;99.90;;;;;;5038122;28;20195;-75
2021/12/20 08:12:35;;;;;;;17.47;4.10;;;-2.20;99.90;;;;;;5032193;28;20587;-79
2021/12/20 08:15:01;;;;;;;20.33;6.07;;;-1.90;99.90;;;;;;5037398;28;20168;-81
2021/12/20 08:17:28;;;;;;;11.77;3.83;;;-0.80;99.90;;;;;;5038439;28;20164;-80
2021/12/20 08:19:54;;;;;;;17.10;3.67;;;-2.10;99.90;;;;;;5037888;28;20180;-76
2021/12/20 08:22:24;;;;;;;18.00;4.67;;;-1.80;99.90;;;;;;5037699;28;20619;-74
2021/12/20 08:24:50;;;;;;;13.03;4.23;;;-1.90;99.90;;;;;;5036516;28;20183;-82
2021/12/20 08:27:15;;;;;;;12.67;3.60;;;-2.20;99.90;;;;;;5024996;28;20268;-82
2021/12/20 08:29:41;;;;;;;13.33;4.00;;;-2.30;99.90;;;;;;5036880;28;20486;-80
2021/12/20 08:32:07;;;;;;;14.27;4.43;;;-2.00;99.90;;;;;;5037959;28;20177;-75
2021/12/20 08:34:33;;;;;;;12.77;3.50;;;-2.10;99.90;;;;;;5037111;28;20239;-74
2021/12/20 08:37:01;;;;;;;15.37;4.87;;;-2.00;99.90;;;;;;5036965;28;20592;-79
2021/12/20 08:39:29;;;;;;;10.00;4.50;;;-1.90;99.90;;;;;;5032338;28;20494;-78
2021/12/20 08:41:56;;;;;;;9.93;3.10;;;-1.90;99.90;;;;;;5018241;28;20475;-84
2021/12/20 08:44:22;;;;;;;13.43;3.37;;;-1.70;99.90;;;;;;5016683;28;20623;-85
2021/12/20 08:46:48;;;;;;;18.43;4.07;;;-1.80;99.90;;;;;;5018587;28;20170;-87
2021/12/20 08:49:13;;;;;;;14.03;3.93;;;-1.70;99.90;;;;;;5020284;28;20276;-88
2021/12/20 08:51:39;;;;;;;9.70;3.37;;;-1.40;99.90;;;;;;5037775;28;20195;-87
2021/12/20 08:54:06;;;;;;;22.77;4.13;;;-1.90;99.90;;;;;;5037059;28;20576;-82
2021/12/20 08:56:34;;;;;;;12.43;3.67;;;-2.20;99.90;;;;;;5037790;28;20177;-78
2021/12/20 08:59:00;;;;;;;13.83;4.10;;;-2.20;99.90;;;;;;5029721;28;20509;-79
2021/12/20 09:01:27;;;;;;;13.93;4.80;;;-2.30;99.90;;;;;;5017841;28;20177;-75
2021/12/20 09:03:53;;;;;;;12.83;4.60;;;-0.40;99.90;;;;;;5018162;28;20208;-75
2021/12/20 09:06:23;;;;;;;12.33;4.83;;;-2.30;99.90;;;;;;5036711;28;20177;-78
2021/12/20 09:08:50;;;;;;;13.13;3.63;;;-2.30;99.90;;;;;;5037324;28;20607;-74
2021/12/20 09:11:16;;;;;;;12.13;4.43;;;-2.30;99.90;;;;;;5037110;28;20165;-83
2021/12/20 09:13:42;;;;;;;14.27;3.27;;;-2.10;99.90;;;;;;5037244;28;20161;-86
2021/12/20 09:16:08;;;;;;;14.40;4.33;;;-1.80;99.90;;;;;;5036113;28;20343;-77
2021/12/20 09:18:34;;;;;;;15.90;5.57;;;-1.50;99.90;;;;;;5036149;28;20176;-73
2021/12/20 09:20:59;;;;;;;14.77;3.87;;;-1.80;99.90;;;;;;5036506;28;20567;-77
2021/12/20 09:23:30;;;;;;;15.03;4.17;;;-2.30;99.90;;;;;;5035720;28;20251;-74
2021/12/20 09:25:56;;;;;;;18.40;3.50;;;-3.00;99.90;;;;;;5035937;28;20478;-75
2021/12/20 09:28:21;;;;;;;14.40;3.70;;;-2.80;99.90;;;;;;5036202;28;20256;-82
2021/12/20 09:30:47;;;;;;;19.60;4.97;;;-3.30;99.90;;;;;;5035660;28;20169;-83
2021/12/20 09:33:14;;;;;;;25.13;5.27;;;-3.20;99.90;;;;;;5035699;28;20209;-74
2021/12/20 09:35:40;;;;;;;26.57;6.17;;;-3.60;99.90;;;;;;5036408;28;20581;-74
2021/12/20 09:38:10;;;;;;;11.43;5.00;;;-3.40;99.90;;;;;;5025740;28;20228;-74
2021/12/20 09:40:40;;;;;;;12.80;4.30;;;-2.90;99.90;;;;;;5034075;28;20188;-82
2021/12/20 09:43:13;;;;;;;28.90;5.50;;;-3.50;99.90;;;;;;5035426;28;20290;-79
2021/12/20 09:45:45;;;;;;;13.40;3.80;;;-1.90;99.90;;;;;;5035065;28;20232;-82
2021/12/20 09:48:16;;;;;;;14.67;4.20;;;-3.20;99.90;;;;;;5035450;28;20175;-76
2021/12/20 09:50:43;;;;;;;9.40;3.37;;;-2.90;99.90;;;;;;5036751;28;20185;-80
2021/12/20 09:53:08;;;;;;;22.83;4.57;;;-2.30;99.90;;;;;;5034305;28;20275;-76
2021/12/20 09:55:35;;;;;;;18.50;3.60;;;-1.40;99.90;;;;;;5035041;28;20338;-79
2021/12/20 09:58:02;;;;;;;20.13;4.57;;;-2.50;99.90;;;;;;5032704;28;20184;-77
2021/12/20 10:00:28;;;;;;;20.13;4.33;;;-1.80;99.90;;;;;;5033471;28;20248;-78
2021/12/20 10:02:54;;;;;;;20.77;3.87;;;-2.30;99.90;;;;;;5034867;28;20233;-80
2021/12/20 10:05:20;;;;;;;11.03;4.47;;;-3.00;99.90;;;;;;5035866;28;20587;-77
2021/12/20 10:07:50;;;;;;;14.70;4.50;;;-1.70;99.90;;;;;;5034356;28;20288;-76
2021/12/20 10:10:38;;;;;;;12.83;3.77;;;-2.00;99.90;;;;;;5030146;28;20176;-78
2021/12/20 10:13:05;;;;;;;17.20;3.77;;;-1.80;99.90;;;;;;5026549;28;20201;-77
2021/12/20 10:15:39;;;;;;;16.93;3.53;;;-2.40;99.90;;;;;;5024430;28;20178;-76
2021/12/20 10:18:12;;;;;;;19.43;4.70;;;-2.20;99.90;;;;;;5025875;28;20238;-75
2021/12/20 10:20:38;;;;;;;23.00;4.40;;;-1.10;99.90;;;;;;5035469;28;20188;-76
2021/12/20 10:23:23;;;;;;;16.27;5.00;;;-1.20;99.90;;;;;;5028115;28;20224;-77
2021/12/20 10:26:08;;;;;;;9.73;2.73;;;-2.90;99.90;;;;;;5018476;28;20655;-79
2021/12/20 10:28:42;;;;;;;12.23;3.63;;;-3.00;99.90;;;;;;5024413;28;20173;-77
2021/12/20 10:31:15;;;;;;;13.07;3.50;;;-3.00;99.90;;;;;;5014734;28;20179;-77
2021/12/20 10:34:00;;;;;;;20.60;6.47;;;-3.30;99.90;;;;;;5019186;28;20659;-78
2021/12/20 10:36:32;;;;;;;16.03;4.23;;;-3.00;99.90;;;;;;5035144;28;20207;-74
2021/12/20 10:39:00;;;;;;;19.10;4.83;;;-3.10;99.90;;;;;;5036021;28;20257;-74
2021/12/20 10:41:35;;;;;;;15.13;5.37;;;-2.50;99.90;;;;;;5034852;28;20186;-74
2021/12/20 10:44:14;;;;;;;23.83;5.17;;;-2.50;99.90;;;;;;5015827;28;20198;-76
2021/12/20 10:46:49;;;;;;;18.83;4.37;;;-2.70;99.90;;;;;;5015802;28;20186;-75
2021/12/20 10:49:18;;;;;;;12.47;5.10;;;-2.50;99.90;;;;;;5033081;28;20175;-75
2021/12/20 10:51:48;;;;;;;25.00;5.40;;;-2.40;99.90;;;;;;5025150;28;20229;-77
2021/12/20 10:54:18;;;;;;;18.20;4.27;;;-1.90;99.90;;;;;;5020239;28;20606;-78
2021/12/20 10:56:58;;;;;;;16.37;4.47;;;-2.00;99.90;;;;;;5034037;28;20304;-78
2021/12/20 10:59:27;;;;;;;16.10;4.93;;;-2.10;99.90;;;;;;5037458;28;20175;-76
2021/12/20 11:05:01;;;;;;;14.73;4.20;;;-2.20;99.90;;;;;;5041836;28;20201;-78
2021/12/20 11:10:00;;;;;;;20.63;7.30;;;-1.60;99.90;;;;;;5037728;28;20239;-78
2021/12/20 11:12:32;;;;;;;13.17;4.07;;;-2.30;99.90;;;;;;5032290;28;20618;-79
2021/12/20 11:15:14;;;;;;;12.23;3.80;;;-2.70;99.90;;;;;;5029320;28;20184;-78
2021/12/20 11:17:42;;;;;;;8.90;4.70;;;-2.70;99.90;;;;;;5020968;28;20175;-76
2021/12/20 11:20:09;;;;;;;19.63;4.87;;;-2.10;99.90;;;;;;5027801;28;20183;-76
2021/12/20 11:22:34;;;;;;;17.30;5.00;;;-2.60;99.90;;;;;;5034767;28;20183;-79
2021/12/20 11:25:05;;;;;;;12.90;4.80;;;-2.80;99.90;;;;;;5036535;28;20255;-77
2021/12/20 11:27:36;;;;;;;14.43;4.60;;;-2.60;99.90;;;;;;5037414;28;20166;-75
2021/12/20 11:30:07;;;;;;;20.33;5.70;;;-2.40;99.90;;;;;;5038018;28;20551;-78
2021/12/20 11:32:34;;;;;;;16.00;5.97;;;-2.70;99.90;;;;;;5038894;28;20481;-75
2021/12/20 11:35:00;;;;;;;27.33;5.53;;;-2.30;99.90;;;;;;5037843;28;20200;-74
2021/12/20 11:37:28;;;;;;;11.20;3.77;;;-2.20;99.90;;;;;;5031268;28;20265;-75
2021/12/20 11:39:55;;;;;;;19.13;4.83;;;-2.50;99.90;;;;;;5029933;28;20191;-75
2021/12/20 11:42:22;;;;;;;19.73;4.33;;;-2.30;99.90;;;;;;5025487;28;20479;-75
2021/12/20 11:44:49;;;;;;;11.37;4.20;;;-2.20;99.90;;;;;;5027158;28;20198;-77
2021/12/20 11:47:33;;;;;;;12.83;3.70;;;-2.70;99.90;;;;;;5028250;28;20176;-76
2021/12/20 11:50:04;;;;;;;16.43;3.37;;;-2.90;99.90;;;;;;5028914;28;20163;-77
2021/12/20 11:52:38;;;;;;;13.67;4.53;;;-3.10;99.90;;;;;;5025793;28;20206;-75
2021/12/20 11:55:23;;;;;;;14.37;4.33;;;-2.90;99.90;;;;;;5030463;28;20535;-76
2021/12/20 11:57:48;;;;;;;18.40;4.77;;;-2.20;99.90;;;;;;5027931;28;20176;-74
2021/12/20 12:00:21;;;;;;;13.53;3.33;;;-2.20;99.90;;;;;;5026532;28;20255;-75
2021/12/20 12:02:50;;;;;;;16.47;4.30;;;-2.50;99.90;;;;;;5025525;28;20254;-72
2021/12/20 12:05:27;;;;;;;16.37;4.30;;;-2.40;99.90;;;;;;5033528;28;20164;-72
2021/12/20 12:07:53;;;;;;;19.00;5.07;;;-2.10;99.90;;;;;;5020018;28;20178;-74
2021/12/20 12:10:29;;;;;;;17.70;5.07;;;-2.00;99.90;;;;;;5035582;28;20267;-71
2021/12/20 12:13:03;;;;;;;23.23;4.13;;;-1.90;99.90;;;;;;5037566;28;20191;-77
2021/12/20 12:15:43;;;;;;;26.03;4.93;;;-2.10;99.90;;;;;;5037741;28;20183;-76
2021/12/20 12:18:10;;;;;;;11.07;4.90;;;-2.10;99.90;;;;;;5033667;28;20178;-71
2021/12/20 12:20:53;;;;;;;16.80;5.03;;;-2.10;99.90;;;;;;5018111;28;20177;-77
2021/12/20 12:23:22;;;;;;;23.17;5.07;;;-2.00;99.90;;;;;;5017033;28;20258;-71
2021/12/20 12:25:57;;;;;;;18.13;4.20;;;-1.60;99.90;;;;;;5016808;28;20495;-78
2021/12/20 12:28:26;;;;;;;15.20;3.50;;;-1.60;99.90;;;;;;5027844;28;20206;-74
2021/12/20 12:30:58;;;;;;;11.67;4.40;;;-1.90;99.90;;;;;;5037981;28;20877;-71
2021/12/20 12:33:29;;;;;;;6.90;3.50;;;-2.60;99.90;;;;;;5037892;28;20169;-76
2021/12/20 12:35:57;;;;;;;12.80;4.83;;;-2.40;99.90;;;;;;5037587;28;20208;-71
2021/12/20 12:38:30;;;;;;;21.57;5.70;;;-2.30;99.90;;;;;;5037528;28;20268;-71
2021/12/20 12:41:05;;;;;;;7.90;3.23;;;-2.30;99.90;;;;;;5037337;28;20232;-74
2021/12/20 12:43:58;;;;;;;12.63;3.87;;;-2.50;99.90;;;;;;5036876;28;20253;-73
2021/12/20 12:46:40;;;;;;;13.43;4.30;;;-1.80;99.90;;;;;;5039459;28;20197;-71
2021/12/20 12:49:26;;;;;;;11.93;4.37;;;-1.90;99.90;;;;;;5021368;28;20623;-71
2021/12/20 12:51:56;;;;;;;20.47;4.47;;;-2.00;99.90;;;;;;5017472;28;20211;-70
2021/12/20 12:54:41;;;;;;;9.93;3.13;;;-1.90;99.90;;;;;;5018189;28;20217;-71
2021/12/20 12:57:18;;;;;;;14.90;3.23;;;-2.20;99.90;;;;;;5017709;28;20191;-71
2021/12/20 12:59:56;;;;;;;7.70;2.80;;;-2.30;99.90;;;;;;5020302;28;20190;-71
2021/12/20 13:02:30;;;;;;;7.80;2.63;;;-2.20;99.90;;;;;;5017894;28;20176;-69
2021/12/20 13:05:00;;;;;;;7.83;2.57;;;-2.40;99.90;;;;;;5017182;28;20630;-70
2021/12/20 13:07:27;;;;;;;9.20;2.00;;;-2.10;99.90;;;;;;5033603;28;20176;-70